sensor_id;sensor_type;location;lat;lon;timestamp;temperature;humidity
37530;DHT22;23374;52.758;6.872;2022-10-17T00:00:42;14.10;99.90
37530;DHT22;23374;52.758;6.872;2022-10-17T00:03:03;14.10;99.90
37530;DHT22;23374;52.758;6.872;2022-10-17T00:05:24;14.10;99.90
37530;DHT22;23374;52.758;6.872;2022-10-17T00:07:44;14.10;99.90
37530;DHT22;23374;52.758;6.872;2022-10-17T00:10:06;14.10;99.90
37530;DHT22;23374;52.758;6.872;2022-10-17T00:12:26;14.20;99.90
37530;DHT22;23374;52.758;6.872;2022-10-17T00:14:47;14.20;99.90
37530;DHT22;23374;52.758;6.872;2022-10-17T00:17:07;14.20;99.90
37530;DHT22;23374;52.758;6.872;2022-10-17T00:19:27;14.20;99.90
37530;DHT22;23374;52.758;6.872;2022-10-17T00:21:48;14.10;99.90
37530;DHT22;23374;52.758;6.872;2022-10-17T00:24:09;14.10;99.90
37530;DHT22;23374;52.758;6.872;2022-10-17T00:26:29;14.20;99.90
37530;DHT22;23374;52.758;6.872;2022-10-17T00:28:51;14.20;99.90
37530;DHT22;23374;52.758;6.872;2022-10-17T00:31:11;14.10;99.90
37530;DHT22;23374;52.758;6.872;2022-10-17T00:33:34;14.10;99.90
37530;DHT22;23374;52.758;6.872;2022-10-17T00:36:10;14.10;99.90
37530;DHT22;23374;52.758;6.872;2022-10-17T00:38:32;14.10;99.90
37530;DHT22;23374;52.758;6.872;2022-10-17T00:40:53;14.10;99.90
37530;DHT22;23374;52.758;6.872;2022-10-17T00:43:16;14.10;99.90
37530;DHT22;23374;52.758;6.872;2022-10-17T00:45:37;14.10;99.90
37530;DHT22;23374;52.758;6.872;2022-10-17T00:48:04;14.10;99.90
37530;DHT22;23374;52.758;6.872;2022-10-17T00:50:25;14.10;99.90
37530;DHT22;23374;52.758;6.872;2022-10-17T00:52:47;14.10;99.90
37530;DHT22;23374;52.758;6.872;2022-10-17T00:55:20;14.10;99.90
37530;DHT22;23374;52.758;6.872;2022-10-17T00:57:41;14.10;99.90
37530;DHT22;23374;52.758;6.872;2022-10-17T01:00:06;14.10;99.90
37530;DHT22;23374;52.758;6.872;2022-10-17T01:02:27;14.10;99.90
37530;DHT22;23374;52.758;6.872;2022-10-17T01:04:50;14.10;99.90
37530;DHT22;23374;52.758;6.872;2022-10-17T01:07:11;14.10;99.90
37530;DHT22;23374;52.758;6.872;2022-10-17T01:09:32;14.10;99.90
37530;DHT22;23374;52.758;6.872;2022-10-17T01:12:25;14.10;99.90
37530;DHT22;23374;52.758;6.872;2022-10-17T01:15:35;14.10;99.90
37530;DHT22;23374;52.758;6.872;2022-10-17T01:18:47;14.10;99.90
37530;DHT22;23374;52.758;6.872;2022-10-17T01:29:51;13.90;99.90
37530;DHT22;23374;52.758;6.872;2022-10-17T01:32:35;13.90;99.90
37530;DHT22;23374;52.758;6.872;2022-10-17T01:35:09;13.90;99.90
37530;DHT22;23374;52.758;6.872;2022-10-17T01:37:55;13.80;99.90
37530;DHT22;23374;52.758;6.872;2022-10-17T01:42:29;13.80;99.90
37530;DHT22;23374;52.758;6.872;2022-10-17T01:45:05;13.80;99.90
37530;DHT22;23374;52.758;6.872;2022-10-17T01:47:31;13.80;99.90
37530;DHT22;23374;52.758;6.872;2022-10-17T01:49:53;13.80;99.90
37530;DHT22;23374;52.758;6.872;2022-10-17T01:52:25;13.70;99.90
37530;DHT22;23374;52.758;6.872;2022-10-17T01:54:54;13.80;99.90
37530;DHT22;23374;52.758;6.872;2022-10-17T01:57:27;13.70;99.90
37530;DHT22;23374;52.758;6.872;2022-10-17T01:59:51;13.70;99.90
37530;DHT22;23374;52.758;6.872;2022-10-17T02:02:13;13.70;99.90
37530;DHT22;23374;52.758;6.872;2022-10-17T02:04:35;13.70;99.90
37530;DHT22;23374;52.758;6.872;2022-10-17T02:06:56;13.70;99.90
37530;DHT22;23374;52.758;6.872;2022-10-17T02:09:23;13.70;99.90
37530;DHT22;23374;52.758;6.872;2022-10-17T02:12:23;13.70;99.90
37530;DHT22;23374;52.758;6.872;2022-10-17T02:17:07;13.70;99.90
37530;DHT22;23374;52.758;6.872;2022-10-17T02:19:49;13.80;99.90
37530;DHT22;23374;52.758;6.872;2022-10-17T02:25:04;13.70;99.90
37530;DHT22;23374;52.758;6.872;2022-10-17T02:27:51;13.70;99.90
37530;DHT22;23374;52.758;6.872;2022-10-17T02:30:36;13.70;99.90
37530;DHT22;23374;52.758;6.872;2022-10-17T02:33:04;13.60;99.90
37530;DHT22;23374;52.758;6.872;2022-10-17T02:35:30;13.60;99.90
37530;DHT22;23374;52.758;6.872;2022-10-17T02:37:52;13.70;99.90
37530;DHT22;23374;52.758;6.872;2022-10-17T02:40:16;13.70;99.90
37530;DHT22;23374;52.758;6.872;2022-10-17T02:42:38;13.60;99.90
37530;DHT22;23374;52.758;6.872;2022-10-17T02:45:00;13.70;99.90
37530;DHT22;23374;52.758;6.872;2022-10-17T02:47:43;13.70;99.90
37530;DHT22;23374;52.758;6.872;2022-10-17T02:50:09;13.70;99.90
37530;DHT22;23374;52.758;6.872;2022-10-17T02:53:16;13.70;99.90
37530;DHT22;23374;52.758;6.872;2022-10-17T02:55:48;13.80;99.90
37530;DHT22;23374;52.758;6.872;2022-10-17T02:58:19;13.80;99.90
37530;DHT22;23374;52.758;6.872;2022-10-17T03:00:41;13.80;99.90
37530;DHT22;23374;52.758;6.872;2022-10-17T03:03:24;13.80;99.90
37530;DHT22;23374;52.758;6.872;2022-10-17T03:05:45;13.80;99.90
37530;DHT22;23374;52.758;6.872;2022-10-17T03:08:05;13.80;99.90
37530;DHT22;23374;52.758;6.872;2022-10-17T03:10:25;13.80;99.90
37530;DHT22;23374;52.758;6.872;2022-10-17T03:12:45;13.80;99.90
37530;DHT22;23374;52.758;6.872;2022-10-17T03:15:07;13.80;99.90
37530;DHT22;23374;52.758;6.872;2022-10-17T03:17:27;13.80;99.90
37530;DHT22;23374;52.758;6.872;2022-10-17T03:19:48;13.80;99.90
37530;DHT22;23374;52.758;6.872;2022-10-17T03:22:08;13.80;99.90
37530;DHT22;23374;52.758;6.872;2022-10-17T03:24:28;13.80;99.90
37530;DHT22;23374;52.758;6.872;2022-10-17T03:26:49;13.80;99.90
37530;DHT22;23374;52.758;6.872;2022-10-17T03:29:09;13.80;99.90
37530;DHT22;23374;52.758;6.872;2022-10-17T03:31:29;13.80;99.90
37530;DHT22;23374;52.758;6.872;2022-10-17T03:33:50;13.80;99.90
37530;DHT22;23374;52.758;6.872;2022-10-17T03:36:14;13.80;99.90
37530;DHT22;23374;52.758;6.872;2022-10-17T03:38:35;13.80;99.90
37530;DHT22;23374;52.758;6.872;2022-10-17T03:40:56;13.80;99.90
37530;DHT22;23374;52.758;6.872;2022-10-17T03:43:16;13.80;99.90
37530;DHT22;23374;52.758;6.872;2022-10-17T03:45:36;13.80;99.90
37530;DHT22;23374;52.758;6.872;2022-10-17T03:47:58;13.80;99.90
37530;DHT22;23374;52.758;6.872;2022-10-17T03:50:19;13.80;99.90
37530;DHT22;23374;52.758;6.872;2022-10-17T03:52:39;13.80;99.90
37530;DHT22;23374;52.758;6.872;2022-10-17T03:54:59;13.80;99.90
37530;DHT22;23374;52.758;6.872;2022-10-17T03:57:19;13.80;99.90
37530;DHT22;23374;52.758;6.872;2022-10-17T03:59:40;13.80;99.90
37530;DHT22;23374;52.758;6.872;2022-10-17T04:02:00;13.80;99.90
37530;DHT22;23374;52.758;6.872;2022-10-17T04:04:20;13.80;99.90
37530;DHT22;23374;52.758;6.872;2022-10-17T04:06:41;13.80;99.90
37530;DHT22;23374;52.758;6.872;2022-10-17T04:09:02;13.80;99.90
37530;DHT22;23374;52.758;6.872;2022-10-17T04:11:22;13.80;99.90
37530;DHT22;23374;52.758;6.872;2022-10-17T04:13:43;13.80;99.90
37530;DHT22;23374;52.758;6.872;2022-10-17T04:16:11;13.80;99.90
37530;DHT22;23374;52.758;6.872;2022-10-17T04:18:32;13.80;99.90
37530;DHT22;23374;52.758;6.872;2022-10-17T04:20:53;13.80;99.90
37530;DHT22;23374;52.758;6.872;2022-10-17T04:23:13;13.80;99.90
37530;DHT22;23374;52.758;6.872;2022-10-17T04:25:33;13.80;99.90
37530;DHT22;23374;52.758;6.872;2022-10-17T04:27:53;13.80;99.90
37530;DHT22;23374;52.758;6.872;2022-10-17T04:30:14;13.80;99.90
37530;DHT22;23374;52.758;6.872;2022-10-17T04:32:36;13.80;99.90
37530;DHT22;23374;52.758;6.872;2022-10-17T04:34:57;13.80;99.90
37530;DHT22;23374;52.758;6.872;2022-10-17T04:37:17;13.80;99.90
37530;DHT22;23374;52.758;6.872;2022-10-17T04:39:37;13.80;99.90
37530;DHT22;23374;52.758;6.872;2022-10-17T04:41:57;13.80;99.90
37530;DHT22;23374;52.758;6.872;2022-10-17T04:44:17;13.80;99.90
37530;DHT22;23374;52.758;6.872;2022-10-17T04:46:38;13.80;99.90
37530;DHT22;23374;52.758;6.872;2022-10-17T04:48:58;13.80;99.90
37530;DHT22;23374;52.758;6.872;2022-10-17T04:51:18;13.80;99.90
37530;DHT22;23374;52.758;6.872;2022-10-17T04:53:39;13.80;99.90
37530;DHT22;23374;52.758;6.872;2022-10-17T04:56:00;13.80;99.90
37530;DHT22;23374;52.758;6.872;2022-10-17T04:58:21;13.80;99.90
37530;DHT22;23374;52.758;6.872;2022-10-17T05:00:42;13.80;99.90
37530;DHT22;23374;52.758;6.872;2022-10-17T05:03:02;13.80;99.90
37530;DHT22;23374;52.758;6.872;2022-10-17T05:05:23;13.80;99.90
37530;DHT22;23374;52.758;6.872;2022-10-17T05:07:43;13.80;99.90
37530;DHT22;23374;52.758;6.872;2022-10-17T05:10:04;13.80;99.90
37530;DHT22;23374;52.758;6.872;2022-10-17T05:12:24;13.80;99.90
37530;DHT22;23374;52.758;6.872;2022-10-17T05:14:45;13.80;99.90
37530;DHT22;23374;52.758;6.872;2022-10-17T05:17:05;13.90;99.90
37530;DHT22;23374;52.758;6.872;2022-10-17T05:19:25;13.80;99.90
37530;DHT22;23374;52.758;6.872;2022-10-17T05:21:45;13.90;99.90
37530;DHT22;23374;52.758;6.872;2022-10-17T05:24:08;13.90;99.90
37530;DHT22;23374;52.758;6.872;2022-10-17T05:26:29;13.90;99.90
37530;DHT22;23374;52.758;6.872;2022-10-17T05:28:50;13.90;99.90
37530;DHT22;23374;52.758;6.872;2022-10-17T05:31:11;13.90;99.90
37530;DHT22;23374;52.758;6.872;2022-10-17T05:33:32;14.00;99.90
37530;DHT22;23374;52.758;6.872;2022-10-17T05:35:53;13.90;99.90
37530;DHT22;23374;52.758;6.872;2022-10-17T05:38:13;14.00;99.90
37530;DHT22;23374;52.758;6.872;2022-10-17T05:40:33;14.00;99.90
37530;DHT22;23374;52.758;6.872;2022-10-17T05:42:54;14.00;99.90
37530;DHT22;23374;52.758;6.872;2022-10-17T05:45:15;14.00;99.90
37530;DHT22;23374;52.758;6.872;2022-10-17T05:47:35;14.00;99.90
37530;DHT22;23374;52.758;6.872;2022-10-17T05:49:55;14.00;99.90
37530;DHT22;23374;52.758;6.872;2022-10-17T05:52:15;14.00;99.90
37530;DHT22;23374;52.758;6.872;2022-10-17T05:54:35;14.00;99.90
37530;DHT22;23374;52.758;6.872;2022-10-17T05:56:56;14.00;99.90
37530;DHT22;23374;52.758;6.872;2022-10-17T05:59:16;14.10;99.90
37530;DHT22;23374;52.758;6.872;2022-10-17T06:01:37;14.10;99.90
37530;DHT22;23374;52.758;6.872;2022-10-17T06:03:57;14.10;99.90
37530;DHT22;23374;52.758;6.872;2022-10-17T06:06:18;14.10;99.90
37530;DHT22;23374;52.758;6.872;2022-10-17T06:08:39;14.10;99.90
37530;DHT22;23374;52.758;6.872;2022-10-17T06:10:59;14.20;99.90
37530;DHT22;23374;52.758;6.872;2022-10-17T06:13:19;14.20;99.90
37530;DHT22;23374;52.758;6.872;2022-10-17T06:15:40;14.20;99.90
37530;DHT22;23374;52.758;6.872;2022-10-17T06:18:00;14.20;99.90
37530;DHT22;23374;52.758;6.872;2022-10-17T06:20:20;14.20;99.90
37530;DHT22;23374;52.758;6.872;2022-10-17T06:22:40;14.30;99.90
37530;DHT22;23374;52.758;6.872;2022-10-17T06:25:01;14.30;99.90
37530;DHT22;23374;52.758;6.872;2022-10-17T06:27:21;14.30;99.90
37530;DHT22;23374;52.758;6.872;2022-10-17T06:29:41;14.30;99.90
37530;DHT22;23374;52.758;6.872;2022-10-17T06:32:02;14.40;99.90
37530;DHT22;23374;52.758;6.872;2022-10-17T06:34:23;14.40;99.90
37530;DHT22;23374;52.758;6.872;2022-10-17T06:36:43;14.40;99.90
37530;DHT22;23374;52.758;6.872;2022-10-17T06:39:04;14.50;99.90
37530;DHT22;23374;52.758;6.872;2022-10-17T06:41:24;14.50;99.90
37530;DHT22;23374;52.758;6.872;2022-10-17T06:43:46;14.50;99.90
37530;DHT22;23374;52.758;6.872;2022-10-17T06:46:07;14.60;99.90
37530;DHT22;23374;52.758;6.872;2022-10-17T06:48:27;14.60;99.90
37530;DHT22;23374;52.758;6.872;2022-10-17T06:50:47;14.60;99.90
37530;DHT22;23374;52.758;6.872;2022-10-17T06:53:07;14.70;99.90
37530;DHT22;23374;52.758;6.872;2022-10-17T06:55:27;14.70;99.90
37530;DHT22;23374;52.758;6.872;2022-10-17T06:57:47;14.80;99.90
37530;DHT22;23374;52.758;6.872;2022-10-17T07:00:08;14.80;99.90
37530;DHT22;23374;52.758;6.872;2022-10-17T07:02:29;14.90;99.90
37530;DHT22;23374;52.758;6.872;2022-10-17T07:04:49;14.90;99.90
37530;DHT22;23374;52.758;6.872;2022-10-17T07:07:09;15.00;99.90
37530;DHT22;23374;52.758;6.872;2022-10-17T07:09:31;15.00;99.90
37530;DHT22;23374;52.758;6.872;2022-10-17T07:11:52;15.10;99.90
37530;DHT22;23374;52.758;6.872;2022-10-17T07:14:12;15.10;99.90
37530;DHT22;23374;52.758;6.872;2022-10-17T07:16:33;15.20;99.90
37530;DHT22;23374;52.758;6.872;2022-10-17T07:18:54;15.30;99.90
37530;DHT22;23374;52.758;6.872;2022-10-17T07:21:15;15.40;99.90
37530;DHT22;23374;52.758;6.872;2022-10-17T07:23:36;15.40;99.90
37530;DHT22;23374;52.758;6.872;2022-10-17T07:26:02;15.50;99.90
37530;DHT22;23374;52.758;6.872;2022-10-17T07:28:26;15.60;99.90
37530;DHT22;23374;52.758;6.872;2022-10-17T07:30:47;15.70;99.90
37530;DHT22;23374;52.758;6.872;2022-10-17T07:33:07;15.80;99.90
37530;DHT22;23374;52.758;6.872;2022-10-17T07:35:27;16.00;99.90
37530;DHT22;23374;52.758;6.872;2022-10-17T07:37:47;16.10;99.90
37530;DHT22;23374;52.758;6.872;2022-10-17T07:40:08;16.20;99.90
37530;DHT22;23374;52.758;6.872;2022-10-17T07:42:29;16.30;99.90
37530;DHT22;23374;52.758;6.872;2022-10-17T07:44:49;16.50;99.90
37530;DHT22;23374;52.758;6.872;2022-10-17T07:47:10;16.60;99.90
37530;DHT22;23374;52.758;6.872;2022-10-17T07:49:30;16.70;99.90
37530;DHT22;23374;52.758;6.872;2022-10-17T07:51:50;16.80;99.90
37530;DHT22;23374;52.758;6.872;2022-10-17T07:54:11;17.00;99.90
37530;DHT22;23374;52.758;6.872;2022-10-17T07:56:33;17.00;99.90
37530;DHT22;23374;52.758;6.872;2022-10-17T07:58:53;17.10;99.90
37530;DHT22;23374;52.758;6.872;2022-10-17T08:01:13;17.10;99.90
37530;DHT22;23374;52.758;6.872;2022-10-17T08:03:34;17.10;99.90
37530;DHT22;23374;52.758;6.872;2022-10-17T08:06:02;17.10;99.90
37530;DHT22;23374;52.758;6.872;2022-10-17T08:08:22;17.20;99.90
37530;DHT22;23374;52.758;6.872;2022-10-17T08:10:43;17.20;99.90
37530;DHT22;23374;52.758;6.872;2022-10-17T08:13:03;17.20;99.90
37530;DHT22;23374;52.758;6.872;2022-10-17T08:15:25;17.20;99.90
37530;DHT22;23374;52.758;6.872;2022-10-17T08:17:45;17.20;99.90
37530;DHT22;23374;52.758;6.872;2022-10-17T08:20:06;17.20;99.90
37530;DHT22;23374;52.758;6.872;2022-10-17T08:22:26;17.20;99.90
37530;DHT22;23374;52.758;6.872;2022-10-17T08:24:46;17.30;99.90
37530;DHT22;23374;52.758;6.872;2022-10-17T08:27:06;17.30;99.90
37530;DHT22;23374;52.758;6.872;2022-10-17T08:29:30;17.30;99.90
37530;DHT22;23374;52.758;6.872;2022-10-17T08:31:52;17.30;99.90
37530;DHT22;23374;52.758;6.872;2022-10-17T08:34:12;17.40;99.90
37530;DHT22;23374;52.758;6.872;2022-10-17T08:36:32;17.40;99.90
37530;DHT22;23374;52.758;6.872;2022-10-17T08:38:52;17.40;99.90
37530;DHT22;23374;52.758;6.872;2022-10-17T08:42:46;17.50;99.90
37530;DHT22;23374;52.758;6.872;2022-10-17T08:46:33;17.50;99.90
37530;DHT22;23374;52.758;6.872;2022-10-17T08:48:56;17.50;99.90
37530;DHT22;23374;52.758;6.872;2022-10-17T08:51:25;17.50;99.90
37530;DHT22;23374;52.758;6.872;2022-10-17T09:00:35;17.60;99.90
37530;DHT22;23374;52.758;6.872;2022-10-17T09:07:50;17.60;99.90
37530;DHT22;23374;52.758;6.872;2022-10-17T09:13:20;17.70;99.90
37530;DHT22;23374;52.758;6.872;2022-10-17T09:17:50;17.70;99.90
37530;DHT22;23374;52.758;6.872;2022-10-17T09:20:20;17.70;99.90
37530;DHT22;23374;52.758;6.872;2022-10-17T09:23:20;17.70;99.90
37530;DHT22;23374;52.758;6.872;2022-10-17T09:25:58;17.80;99.90
37530;DHT22;23374;52.758;6.872;2022-10-17T09:28:35;17.80;99.90
37530;DHT22;23374;52.758;6.872;2022-10-17T09:31:01;17.80;99.90
37530;DHT22;23374;52.758;6.872;2022-10-17T09:33:29;17.90;99.90
37530;DHT22;23374;52.758;6.872;2022-10-17T09:35:51;17.90;99.90
37530;DHT22;23374;52.758;6.872;2022-10-17T09:38:35;18.00;99.90
37530;DHT22;23374;52.758;6.872;2022-10-17T09:41:00;18.00;99.90
37530;DHT22;23374;52.758;6.872;2022-10-17T09:43:21;18.00;99.90
37530;DHT22;23374;52.758;6.872;2022-10-17T09:46:24;18.00;99.90
37530;DHT22;23374;52.758;6.872;2022-10-17T09:48:53;18.00;99.90
37530;DHT22;23374;52.758;6.872;2022-10-17T09:51:15;18.00;99.90
37530;DHT22;23374;52.758;6.872;2022-10-17T09:53:39;18.10;99.90
37530;DHT22;23374;52.758;6.872;2022-10-17T09:56:06;18.10;99.90
37530;DHT22;23374;52.758;6.872;2022-10-17T09:58:50;18.10;99.90
37530;DHT22;23374;52.758;6.872;2022-10-17T10:01:26;18.10;99.90
37530;DHT22;23374;52.758;6.872;2022-10-17T10:04:15;18.10;99.90
37530;DHT22;23374;52.758;6.872;2022-10-17T10:06:36;18.00;99.90
37530;DHT22;23374;52.758;6.872;2022-10-17T10:08:57;18.00;99.90
37530;DHT22;23374;52.758;6.872;2022-10-17T10:11:22;17.90;99.90
37530;DHT22;23374;52.758;6.872;2022-10-17T10:13:46;17.90;99.90
37530;DHT22;23374;52.758;6.872;2022-10-17T10:16:32;17.80;99.90
37530;DHT22;23374;52.758;6.872;2022-10-17T10:18:52;17.70;99.90
37530;DHT22;23374;52.758;6.872;2022-10-17T10:21:19;17.60;99.90
37530;DHT22;23374;52.758;6.872;2022-10-17T10:23:43;17.60;99.90
37530;DHT22;23374;52.758;6.872;2022-10-17T10:26:23;17.50;99.90
37530;DHT22;23374;52.758;6.872;2022-10-17T10:29:02;17.50;99.90
37530;DHT22;23374;52.758;6.872;2022-10-17T10:31:37;17.40;99.90
37530;DHT22;23374;52.758;6.872;2022-10-17T10:34:01;17.30;99.90
37530;DHT22;23374;52.758;6.872;2022-10-17T10:36:22;17.30;99.90
37530;DHT22;23374;52.758;6.872;2022-10-17T10:38:53;17.30;99.90
37530;DHT22;23374;52.758;6.872;2022-10-17T10:41:15;17.20;99.90
37530;DHT22;23374;52.758;6.872;2022-10-17T10:43:48;17.20;99.90
37530;DHT22;23374;52.758;6.872;2022-10-17T10:46:21;17.20;99.90
37530;DHT22;23374;52.758;6.872;2022-10-17T10:48:56;17.10;99.90
37530;DHT22;23374;52.758;6.872;2022-10-17T10:51:25;17.10;99.90
37530;DHT22;23374;52.758;6.872;2022-10-17T10:54:57;17.00;99.90
37530;DHT22;23374;52.758;6.872;2022-10-17T10:57:22;17.00;99.90
37530;DHT22;23374;52.758;6.872;2022-10-17T11:00:35;17.00;99.90
37530;DHT22;23374;52.758;6.872;2022-10-17T11:08:19;16.90;99.90
37530;DHT22;23374;52.758;6.872;2022-10-17T11:11:53;16.90;99.90
37530;DHT22;23374;52.758;6.872;2022-10-17T11:14:41;16.90;99.90
37530;DHT22;23374;52.758;6.872;2022-10-17T11:18:44;16.90;99.90
37530;DHT22;23374;52.758;6.872;2022-10-17T11:28:44;17.00;99.90
37530;DHT22;23374;52.758;6.872;2022-10-17T11:31:14;17.00;99.90
37530;DHT22;23374;52.758;6.872;2022-10-17T11:33:57;16.90;99.90
37530;DHT22;23374;52.758;6.872;2022-10-17T11:36:23;16.90;99.90
37530;DHT22;23374;52.758;6.872;2022-10-17T11:39:00;16.90;99.90
37530;DHT22;23374;52.758;6.872;2022-10-17T11:44:57;16.90;99.90
37530;DHT22;23374;52.758;6.872;2022-10-17T11:48:25;17.00;99.90
37530;DHT22;23374;52.758;6.872;2022-10-17T11:50:52;17.00;99.90
37530;DHT22;23374;52.758;6.872;2022-10-17T11:53:21;17.00;99.90
37530;DHT22;23374;52.758;6.872;2022-10-17T11:55:42;17.00;99.90
37530;DHT22;23374;52.758;6.872;2022-10-17T11:58:26;17.00;99.90
37530;DHT22;23374;52.758;6.872;2022-10-17T12:01:43;17.00;99.90
37530;DHT22;23374;52.758;6.872;2022-10-17T12:06:12;17.00;99.90
37530;DHT22;23374;52.758;6.872;2022-10-17T12:12:01;16.90;99.90
37530;DHT22;23374;52.758;6.872;2022-10-17T12:16:47;16.90;99.90
37530;DHT22;23374;52.758;6.872;2022-10-17T12:19:22;16.90;99.90
37530;DHT22;23374;52.758;6.872;2022-10-17T12:22:22;16.90;99.90
37530;DHT22;23374;52.758;6.872;2022-10-17T12:24:56;16.90;99.90
37530;DHT22;23374;52.758;6.872;2022-10-17T12:28:47;16.90;99.90
37530;DHT22;23374;52.758;6.872;2022-10-17T12:31:29;16.90;99.90
37530;DHT22;23374;52.758;6.872;2022-10-17T12:33:55;16.90;99.90
37530;DHT22;23374;52.758;6.872;2022-10-17T12:36:38;16.90;99.90
37530;DHT22;23374;52.758;6.872;2022-10-17T12:39:41;17.00;99.90
37530;DHT22;23374;52.758;6.872;2022-10-17T12:42:01;17.00;99.90
37530;DHT22;23374;52.758;6.872;2022-10-17T12:44:40;17.00;99.90
37530;DHT22;23374;52.758;6.872;2022-10-17T12:47:37;17.10;99.90
37530;DHT22;23374;52.758;6.872;2022-10-17T12:49:58;17.10;99.90
37530;DHT22;23374;52.758;6.872;2022-10-17T12:54:11;17.10;99.90
37530;DHT22;23374;52.758;6.872;2022-10-17T12:56:40;17.20;99.90
37530;DHT22;23374;52.758;6.872;2022-10-17T12:59:26;17.20;99.90
37530;DHT22;23374;52.758;6.872;2022-10-17T13:01:52;17.20;99.90
37530;DHT22;23374;52.758;6.872;2022-10-17T13:04:13;17.20;99.90
37530;DHT22;23374;52.758;6.872;2022-10-17T13:06:39;17.30;99.90
37530;DHT22;23374;52.758;6.872;2022-10-17T13:09:07;17.30;99.90
37530;DHT22;23374;52.758;6.872;2022-10-17T13:11:31;17.30;99.90
37530;DHT22;23374;52.758;6.872;2022-10-17T13:13:56;17.30;99.90
37530;DHT22;23374;52.758;6.872;2022-10-17T13:16:36;17.30;99.90
37530;DHT22;23374;52.758;6.872;2022-10-17T13:18:58;17.30;99.90
37530;DHT22;23374;52.758;6.872;2022-10-17T13:21:19;17.30;99.90
37530;DHT22;23374;52.758;6.872;2022-10-17T13:23:40;17.30;99.90
37530;DHT22;23374;52.758;6.872;2022-10-17T13:27:01;17.30;99.90
37530;DHT22;23374;52.758;6.872;2022-10-17T13:29:24;17.30;99.90
37530;DHT22;23374;52.758;6.872;2022-10-17T13:31:52;17.30;99.90
37530;DHT22;23374;52.758;6.872;2022-10-17T13:34:20;17.30;99.90
37530;DHT22;23374;52.758;6.872;2022-10-17T13:36:42;17.30;99.90
37530;DHT22;23374;52.758;6.872;2022-10-17T13:39:11;17.30;99.90
37530;DHT22;23374;52.758;6.872;2022-10-17T13:41:33;17.30;99.90
37530;DHT22;23374;52.758;6.872;2022-10-17T13:43:55;17.30;99.90
37530;DHT22;23374;52.758;6.872;2022-10-17T13:46:31;17.30;99.90
37530;DHT22;23374;52.758;6.872;2022-10-17T13:48:52;17.30;99.90
37530;DHT22;23374;52.758;6.872;2022-10-17T13:51:12;17.40;99.90
37530;DHT22;23374;52.758;6.872;2022-10-17T13:53:38;17.40;99.90
37530;DHT22;23374;52.758;6.872;2022-10-17T13:56:26;17.40;99.90
37530;DHT22;23374;52.758;6.872;2022-10-17T13:58:53;17.30;99.90
37530;DHT22;23374;52.758;6.872;2022-10-17T14:01:17;17.30;99.90
37530;DHT22;23374;52.758;6.872;2022-10-17T14:03:41;17.30;99.90
37530;DHT22;23374;52.758;6.872;2022-10-17T14:06:11;17.30;99.90
37530;DHT22;23374;52.758;6.872;2022-10-17T14:08:33;17.30;99.90
37530;DHT22;23374;52.758;6.872;2022-10-17T14:10:53;17.30;99.90
37530;DHT22;23374;52.758;6.872;2022-10-17T14:13:24;17.30;99.90
37530;DHT22;23374;52.758;6.872;2022-10-17T14:15:45;17.30;99.90
37530;DHT22;23374;52.758;6.872;2022-10-17T14:18:07;17.30;99.90
37530;DHT22;23374;52.758;6.872;2022-10-17T14:20:28;17.30;99.90
37530;DHT22;23374;52.758;6.872;2022-10-17T14:22:49;17.30;99.90
37530;DHT22;23374;52.758;6.872;2022-10-17T14:28:44;17.30;99.90
37530;DHT22;23374;52.758;6.872;2022-10-17T14:31:20;17.20;99.90
37530;DHT22;23374;52.758;6.872;2022-10-17T14:33:46;17.00;99.90
37530;DHT22;23374;52.758;6.872;2022-10-17T14:36:07;16.90;99.90
37530;DHT22;23374;52.758;6.872;2022-10-17T14:38:28;16.80;99.90
37530;DHT22;23374;52.758;6.872;2022-10-17T14:41:02;16.70;99.90
37530;DHT22;23374;52.758;6.872;2022-10-17T14:43:28;16.60;99.90
37530;DHT22;23374;52.758;6.872;2022-10-17T14:45:49;16.50;99.90
37530;DHT22;23374;52.758;6.872;2022-10-17T14:48:16;16.50;99.90
37530;DHT22;23374;52.758;6.872;2022-10-17T14:50:38;16.40;99.90
37530;DHT22;23374;52.758;6.872;2022-10-17T14:54:51;16.40;99.90
37530;DHT22;23374;52.758;6.872;2022-10-17T14:57:27;16.30;99.90
37530;DHT22;23374;52.758;6.872;2022-10-17T14:59:48;16.20;99.90
37530;DHT22;23374;52.758;6.872;2022-10-17T15:02:09;16.20;99.90
37530;DHT22;23374;52.758;6.872;2022-10-17T15:04:30;16.10;99.90
37530;DHT22;23374;52.758;6.872;2022-10-17T15:06:54;16.10;99.90
37530;DHT22;23374;52.758;6.872;2022-10-17T15:09:14;16.10;99.90
37530;DHT22;23374;52.758;6.872;2022-10-17T15:11:35;16.00;99.90
37530;DHT22;23374;52.758;6.872;2022-10-17T15:13:56;16.00;99.90
37530;DHT22;23374;52.758;6.872;2022-10-17T15:16:23;16.00;99.90
37530;DHT22;23374;52.758;6.872;2022-10-17T15:18:43;15.90;99.90
37530;DHT22;23374;52.758;6.872;2022-10-17T15:21:11;15.90;99.90
37530;DHT22;23374;52.758;6.872;2022-10-17T15:23:31;15.90;99.90
37530;DHT22;23374;52.758;6.872;2022-10-17T15:25:52;15.90;99.90
37530;DHT22;23374;52.758;6.872;2022-10-17T15:28:13;15.90;99.90
37530;DHT22;23374;52.758;6.872;2022-10-17T15:30:35;15.90;99.90
37530;DHT22;23374;52.758;6.872;2022-10-17T15:32:56;15.90;99.90
37530;DHT22;23374;52.758;6.872;2022-10-17T15:35:16;15.90;99.90
37530;DHT22;23374;52.758;6.872;2022-10-17T15:37:37;15.90;99.90
37530;DHT22;23374;52.758;6.872;2022-10-17T15:39:58;16.00;99.90
37530;DHT22;23374;52.758;6.872;2022-10-17T15:42:27;16.00;99.90
37530;DHT22;23374;52.758;6.872;2022-10-17T15:44:48;16.00;99.90
37530;DHT22;23374;52.758;6.872;2022-10-17T15:47:27;16.00;99.90
37530;DHT22;23374;52.758;6.872;2022-10-17T15:49:49;16.00;99.90
37530;DHT22;23374;52.758;6.872;2022-10-17T15:52:09;16.00;99.90
37530;DHT22;23374;52.758;6.872;2022-10-17T15:54:30;16.10;99.90
37530;DHT22;23374;52.758;6.872;2022-10-17T15:56:53;16.10;99.90
37530;DHT22;23374;52.758;6.872;2022-10-17T15:59:20;16.10;99.90
37530;DHT22;23374;52.758;6.872;2022-10-17T16:01:41;16.10;99.90
37530;DHT22;23374;52.758;6.872;2022-10-17T16:04:02;16.10;99.90
37530;DHT22;23374;52.758;6.872;2022-10-17T16:06:23;16.00;99.90
37530;DHT22;23374;52.758;6.872;2022-10-17T16:08:45;16.10;99.90
37530;DHT22;23374;52.758;6.872;2022-10-17T16:11:05;16.00;99.90
37530;DHT22;23374;52.758;6.872;2022-10-17T16:13:26;16.00;99.90
37530;DHT22;23374;52.758;6.872;2022-10-17T16:15:46;16.00;99.90
37530;DHT22;23374;52.758;6.872;2022-10-17T16:18:07;16.00;99.90
37530;DHT22;23374;52.758;6.872;2022-10-17T16:20:28;16.00;99.90
37530;DHT22;23374;52.758;6.872;2022-10-17T16:22:49;15.90;99.90
37530;DHT22;23374;52.758;6.872;2022-10-17T16:25:23;15.90;99.90
37530;DHT22;23374;52.758;6.872;2022-10-17T16:27:46;15.90;99.90
37530;DHT22;23374;52.758;6.872;2022-10-17T16:30:07;15.90;99.90
37530;DHT22;23374;52.758;6.872;2022-10-17T16:32:28;15.90;99.90